sensor_id;sensor_type;location;lat;lon;timestamp;temperature;humidity
23283;DHT22;11810;51.178;3.878;2023-05-20T00:00:30;12.80;99.90
23283;DHT22;11810;51.178;3.878;2023-05-20T00:02:56;12.80;99.90
23283;DHT22;11810;51.178;3.878;2023-05-20T00:05:22;12.70;99.90
23283;DHT22;11810;51.178;3.878;2023-05-20T00:07:48;12.80;99.90
23283;DHT22;11810;51.178;3.878;2023-05-20T00:10:14;12.90;99.90
23283;DHT22;11810;51.178;3.878;2023-05-20T00:12:40;12.90;99.90
23283;DHT22;11810;51.178;3.878;2023-05-20T00:15:06;12.90;99.90
23283;DHT22;11810;51.178;3.878;2023-05-20T00:17:32;12.90;99.90
23283;DHT22;11810;51.178;3.878;2023-05-20T00:19:58;12.90;99.90
23283;DHT22;11810;51.178;3.878;2023-05-20T00:22:25;12.90;99.90
23283;DHT22;11810;51.178;3.878;2023-05-20T00:24:50;12.90;99.90
23283;DHT22;11810;51.178;3.878;2023-05-20T00:27:16;12.90;99.90
23283;DHT22;11810;51.178;3.878;2023-05-20T00:29:42;12.90;99.90
23283;DHT22;11810;51.178;3.878;2023-05-20T00:32:08;12.90;99.90
23283;DHT22;11810;51.178;3.878;2023-05-20T00:34:34;13.00;99.90
23283;DHT22;11810;51.178;3.878;2023-05-20T00:37:00;13.00;99.90
23283;DHT22;11810;51.178;3.878;2023-05-20T00:39:26;13.00;99.90
23283;DHT22;11810;51.178;3.878;2023-05-20T00:41:52;13.00;99.90
23283;DHT22;11810;51.178;3.878;2023-05-20T00:44:18;13.00;99.90
23283;DHT22;11810;51.178;3.878;2023-05-20T00:46:48;13.00;99.90
23283;DHT22;11810;51.178;3.878;2023-05-20T00:49:14;13.00;99.90
23283;DHT22;11810;51.178;3.878;2023-05-20T00:51:40;13.00;99.90
23283;DHT22;11810;51.178;3.878;2023-05-20T00:54:06;12.90;99.90
23283;DHT22;11810;51.178;3.878;2023-05-20T00:56:32;13.00;99.90
23283;DHT22;11810;51.178;3.878;2023-05-20T00:58:58;13.00;99.90
23283;DHT22;11810;51.178;3.878;2023-05-20T01:01:24;13.00;99.90
23283;DHT22;11810;51.178;3.878;2023-05-20T01:03:51;12.90;99.90
23283;DHT22;11810;51.178;3.878;2023-05-20T01:06:17;13.00;99.90
23283;DHT22;11810;51.178;3.878;2023-05-20T01:08:43;12.90;99.90
23283;DHT22;11810;51.178;3.878;2023-05-20T01:11:27;13.00;99.90
23283;DHT22;11810;51.178;3.878;2023-05-20T01:13:54;12.90;99.90
23283;DHT22;11810;51.178;3.878;2023-05-20T01:16:23;12.80;99.90
23283;DHT22;11810;51.178;3.878;2023-05-20T01:18:50;12.80;99.90
23283;DHT22;11810;51.178;3.878;2023-05-20T01:21:20;12.70;99.90
23283;DHT22;11810;51.178;3.878;2023-05-20T01:23:46;12.70;99.90
23283;DHT22;11810;51.178;3.878;2023-05-20T01:26:13;12.80;99.90
23283;DHT22;11810;51.178;3.878;2023-05-20T01:28:40;12.80;99.90
23283;DHT22;11810;51.178;3.878;2023-05-20T01:31:14;12.80;99.90
23283;DHT22;11810;51.178;3.878;2023-05-20T01:33:42;12.80;99.90
23283;DHT22;11810;51.178;3.878;2023-05-20T01:36:09;12.60;99.90
23283;DHT22;11810;51.178;3.878;2023-05-20T01:38:36;12.60;99.90
23283;DHT22;11810;51.178;3.878;2023-05-20T01:41:04;12.60;99.90
23283;DHT22;11810;51.178;3.878;2023-05-20T01:43:30;12.60;99.90
23283;DHT22;11810;51.178;3.878;2023-05-20T01:45:56;12.60;99.90
23283;DHT22;11810;51.178;3.878;2023-05-20T01:48:22;12.60;99.90
23283;DHT22;11810;51.178;3.878;2023-05-20T01:50:48;12.70;99.90
23283;DHT22;11810;51.178;3.878;2023-05-20T01:53:14;12.80;99.90
23283;DHT22;11810;51.178;3.878;2023-05-20T01:55:40;12.80;99.90
23283;DHT22;11810;51.178;3.878;2023-05-20T01:58:06;12.80;99.90
23283;DHT22;11810;51.178;3.878;2023-05-20T02:00:32;12.60;99.90
23283;DHT22;11810;51.178;3.878;2023-05-20T02:02:59;12.50;99.90
23283;DHT22;11810;51.178;3.878;2023-05-20T02:05:25;12.50;99.90
23283;DHT22;11810;51.178;3.878;2023-05-20T02:07:51;12.60;99.90
23283;DHT22;11810;51.178;3.878;2023-05-20T02:10:17;12.60;99.90
23283;DHT22;11810;51.178;3.878;2023-05-20T02:12:43;12.60;99.90
23283;DHT22;11810;51.178;3.878;2023-05-20T02:15:09;12.50;99.90
23283;DHT22;11810;51.178;3.878;2023-05-20T02:17:35;12.60;99.90
23283;DHT22;11810;51.178;3.878;2023-05-20T02:20:01;12.70;99.90
23283;DHT22;11810;51.178;3.878;2023-05-20T02:22:30;12.60;99.90
23283;DHT22;11810;51.178;3.878;2023-05-20T02:24:56;12.60;99.90
23283;DHT22;11810;51.178;3.878;2023-05-20T02:27:22;12.60;99.90
23283;DHT22;11810;51.178;3.878;2023-05-20T02:29:48;12.50;99.90
23283;DHT22;11810;51.178;3.878;2023-05-20T02:32:14;12.50;99.90
23283;DHT22;11810;51.178;3.878;2023-05-20T02:34:40;12.50;99.90
23283;DHT22;11810;51.178;3.878;2023-05-20T02:37:06;12.40;99.90
23283;DHT22;11810;51.178;3.878;2023-05-20T02:39:31;12.40;99.90
23283;DHT22;11810;51.178;3.878;2023-05-20T02:41:57;12.40;99.90
23283;DHT22;11810;51.178;3.878;2023-05-20T02:44:23;12.30;99.90
23283;DHT22;11810;51.178;3.878;2023-05-20T02:46:50;12.40;99.90
23283;DHT22;11810;51.178;3.878;2023-05-20T02:49:16;12.40;99.90
23283;DHT22;11810;51.178;3.878;2023-05-20T02:51:42;12.30;99.90
23283;DHT22;11810;51.178;3.878;2023-05-20T02:54:08;12.30;99.90
23283;DHT22;11810;51.178;3.878;2023-05-20T02:56:34;12.20;99.90
23283;DHT22;11810;51.178;3.878;2023-05-20T02:59:00;12.20;99.90
23283;DHT22;11810;51.178;3.878;2023-05-20T03:01:26;12.20;99.90
23283;DHT22;11810;51.178;3.878;2023-05-20T03:03:53;12.20;99.90
23283;DHT22;11810;51.178;3.878;2023-05-20T03:06:19;12.10;99.90
23283;DHT22;11810;51.178;3.878;2023-05-20T03:08:45;12.10;99.90
23283;DHT22;11810;51.178;3.878;2023-05-20T03:11:11;12.00;99.90
23283;DHT22;11810;51.178;3.878;2023-05-20T03:13:37;12.00;99.90
23283;DHT22;11810;51.178;3.878;2023-05-20T03:16:03;12.00;99.90
23283;DHT22;11810;51.178;3.878;2023-05-20T03:18:29;12.00;99.90
23283;DHT22;11810;51.178;3.878;2023-05-20T03:20:55;12.10;99.90
23283;DHT22;11810;51.178;3.878;2023-05-20T03:23:21;12.10;99.90
23283;DHT22;11810;51.178;3.878;2023-05-20T03:25:47;12.00;99.90
23283;DHT22;11810;51.178;3.878;2023-05-20T03:28:13;11.90;99.90
23283;DHT22;11810;51.178;3.878;2023-05-20T03:30:39;11.90;99.90
23283;DHT22;11810;51.178;3.878;2023-05-20T03:33:05;11.90;99.90
23283;DHT22;11810;51.178;3.878;2023-05-20T03:35:32;11.80;99.90
23283;DHT22;11810;51.178;3.878;2023-05-20T03:37:58;11.90;99.90
23283;DHT22;11810;51.178;3.878;2023-05-20T03:40:26;11.90;99.90
23283;DHT22;11810;51.178;3.878;2023-05-20T03:42:52;11.70;99.90
23283;DHT22;11810;51.178;3.878;2023-05-20T03:45:18;11.70;99.90
23283;DHT22;11810;51.178;3.878;2023-05-20T03:47:44;11.70;99.90
23283;DHT22;11810;51.178;3.878;2023-05-20T03:50:10;11.70;99.90
23283;DHT22;11810;51.178;3.878;2023-05-20T03:52:36;11.70;99.90
23283;DHT22;11810;51.178;3.878;2023-05-20T03:55:03;11.70;99.90
23283;DHT22;11810;51.178;3.878;2023-05-20T03:57:29;11.60;99.90
23283;DHT22;11810;51.178;3.878;2023-05-20T03:59:56;11.60;99.90
23283;DHT22;11810;51.178;3.878;2023-05-20T04:02:22;11.60;99.90
23283;DHT22;11810;51.178;3.878;2023-05-20T04:04:48;11.60;99.90
23283;DHT22;11810;51.178;3.878;2023-05-20T04:07:17;11.50;99.90
23283;DHT22;11810;51.178;3.878;2023-05-20T04:09:43;11.60;99.90
23283;DHT22;11810;51.178;3.878;2023-05-20T04:12:09;11.60;99.90
23283;DHT22;11810;51.178;3.878;2023-05-20T04:14:36;11.60;99.90
23283;DHT22;11810;51.178;3.878;2023-05-20T04:17:03;11.60;99.90
23283;DHT22;11810;51.178;3.878;2023-05-20T04:19:30;11.70;99.90
23283;DHT22;11810;51.178;3.878;2023-05-20T04:21:56;11.70;99.90
23283;DHT22;11810;51.178;3.878;2023-05-20T04:24:22;11.60;99.90
23283;DHT22;11810;51.178;3.878;2023-05-20T04:26:50;11.80;99.90
23283;DHT22;11810;51.178;3.878;2023-05-20T04:29:17;11.80;99.90
23283;DHT22;11810;51.178;3.878;2023-05-20T04:31:45;11.90;99.90
23283;DHT22;11810;51.178;3.878;2023-05-20T04:34:11;11.90;99.90
23283;DHT22;11810;51.178;3.878;2023-05-20T04:36:37;11.80;99.90
23283;DHT22;11810;51.178;3.878;2023-05-20T04:39:04;11.70;99.90
23283;DHT22;11810;51.178;3.878;2023-05-20T04:41:30;11.80;99.90
23283;DHT22;11810;51.178;3.878;2023-05-20T04:43:56;11.90;99.90
23283;DHT22;11810;51.178;3.878;2023-05-20T04:46:26;11.90;99.90
23283;DHT22;11810;51.178;3.878;2023-05-20T04:48:52;11.90;99.90
23283;DHT22;11810;51.178;3.878;2023-05-20T04:51:18;11.90;99.90
23283;DHT22;11810;51.178;3.878;2023-05-20T04:53:44;11.90;99.90
23283;DHT22;11810;51.178;3.878;2023-05-20T04:56:11;12.10;99.90
23283;DHT22;11810;51.178;3.878;2023-05-20T04:58:38;12.30;99.90
23283;DHT22;11810;51.178;3.878;2023-05-20T05:01:04;12.40;99.90
23283;DHT22;11810;51.178;3.878;2023-05-20T05:03:31;12.40;99.90
23283;DHT22;11810;51.178;3.878;2023-05-20T05:05:57;12.40;99.90
23283;DHT22;11810;51.178;3.878;2023-05-20T05:08:24;12.40;99.90
23283;DHT22;11810;51.178;3.878;2023-05-20T05:10:51;12.40;99.90
23283;DHT22;11810;51.178;3.878;2023-05-20T05:13:17;12.40;99.90
23283;DHT22;11810;51.178;3.878;2023-05-20T05:15:43;12.50;99.90
23283;DHT22;11810;51.178;3.878;2023-05-20T05:18:09;12.60;99.90
23283;DHT22;11810;51.178;3.878;2023-05-20T05:20:35;12.70;99.90
23283;DHT22;11810;51.178;3.878;2023-05-20T05:23:01;12.80;99.90
23283;DHT22;11810;51.178;3.878;2023-05-20T05:25:27;13.10;99.90
23283;DHT22;11810;51.178;3.878;2023-05-20T05:27:55;13.40;99.90
23283;DHT22;11810;51.178;3.878;2023-05-20T05:30:21;13.80;99.90
23283;DHT22;11810;51.178;3.878;2023-05-20T05:32:47;14.10;99.90
23283;DHT22;11810;51.178;3.878;2023-05-20T05:35:13;14.50;99.90
23283;DHT22;11810;51.178;3.878;2023-05-20T05:37:39;14.80;99.90
23283;DHT22;11810;51.178;3.878;2023-05-20T05:40:06;15.10;99.90
23283;DHT22;11810;51.178;3.878;2023-05-20T05:42:32;15.40;99.90
23283;DHT22;11810;51.178;3.878;2023-05-20T05:44:58;15.40;99.90
23283;DHT22;11810;51.178;3.878;2023-05-20T05:47:24;15.80;99.90
23283;DHT22;11810;51.178;3.878;2023-05-20T05:49:54;16.00;99.90
23283;DHT22;11810;51.178;3.878;2023-05-20T05:52:20;16.30;99.90
23283;DHT22;11810;51.178;3.878;2023-05-20T05:54:46;16.50;99.90
23283;DHT22;11810;51.178;3.878;2023-05-20T05:57:12;16.70;99.90
23283;DHT22;11810;51.178;3.878;2023-05-20T05:59:38;17.20;99.90
23283;DHT22;11810;51.178;3.878;2023-05-20T06:02:04;17.40;99.90
23283;DHT22;11810;51.178;3.878;2023-05-20T06:04:30;17.60;99.90
23283;DHT22;11810;51.178;3.878;2023-05-20T06:06:56;18.00;99.90
23283;DHT22;11810;51.178;3.878;2023-05-20T06:09:22;18.10;99.90
23283;DHT22;11810;51.178;3.878;2023-05-20T06:11:48;18.00;99.90
23283;DHT22;11810;51.178;3.878;2023-05-20T06:14:14;18.30;99.90
23283;DHT22;11810;51.178;3.878;2023-05-20T06:16:40;18.40;99.90
23283;DHT22;11810;51.178;3.878;2023-05-20T06:19:06;18.70;99.90
23283;DHT22;11810;51.178;3.878;2023-05-20T06:21:33;18.90;99.90
23283;DHT22;11810;51.178;3.878;2023-05-20T06:23:59;19.10;99.90
23283;DHT22;11810;51.178;3.878;2023-05-20T06:26:25;19.40;99.90
23283;DHT22;11810;51.178;3.878;2023-05-20T06:28:51;19.70;99.90
23283;DHT22;11810;51.178;3.878;2023-05-20T06:31:18;20.10;99.90
23283;DHT22;11810;51.178;3.878;2023-05-20T06:33:44;20.50;99.90
23283;DHT22;11810;51.178;3.878;2023-05-20T06:36:10;20.60;99.90
23283;DHT22;11810;51.178;3.878;2023-05-20T06:38:36;20.80;99.90
23283;DHT22;11810;51.178;3.878;2023-05-20T06:41:03;20.90;99.90
23283;DHT22;11810;51.178;3.878;2023-05-20T06:43:28;20.80;99.90
23283;DHT22;11810;51.178;3.878;2023-05-20T06:45:54;21.00;99.90
23283;DHT22;11810;51.178;3.878;2023-05-20T06:48:20;20.80;99.90
23283;DHT22;11810;51.178;3.878;2023-05-20T06:50:46;21.30;99.90
23283;DHT22;11810;51.178;3.878;2023-05-20T06:53:12;21.60;99.90
23283;DHT22;11810;51.178;3.878;2023-05-20T06:55:38;21.60;99.90
23283;DHT22;11810;51.178;3.878;2023-05-20T06:58:04;21.90;99.90
23283;DHT22;11810;51.178;3.878;2023-05-20T07:00:30;22.10;99.90
23283;DHT22;11810;51.178;3.878;2023-05-20T07:02:56;22.10;99.90
23283;DHT22;11810;51.178;3.878;2023-05-20T07:05:22;22.50;99.90
23283;DHT22;11810;51.178;3.878;2023-05-20T07:07:49;22.80;99.90
23283;DHT22;11810;51.178;3.878;2023-05-20T07:10:15;22.50;99.90
23283;DHT22;11810;51.178;3.878;2023-05-20T07:12:41;22.60;99.90
23283;DHT22;11810;51.178;3.878;2023-05-20T07:15:08;22.90;99.90
23283;DHT22;11810;51.178;3.878;2023-05-20T07:17:34;22.80;99.90
23283;DHT22;11810;51.178;3.878;2023-05-20T07:20:00;23.00;99.90
23283;DHT22;11810;51.178;3.878;2023-05-20T07:22:26;23.00;99.90
23283;DHT22;11810;51.178;3.878;2023-05-20T07:24:51;23.30;99.90
23283;DHT22;11810;51.178;3.878;2023-05-20T07:27:17;23.80;99.90
23283;DHT22;11810;51.178;3.878;2023-05-20T07:29:43;24.00;99.90
23283;DHT22;11810;51.178;3.878;2023-05-20T07:32:09;23.50;99.90
23283;DHT22;11810;51.178;3.878;2023-05-20T07:34:36;23.60;99.90
23283;DHT22;11810;51.178;3.878;2023-05-20T07:37:02;23.50;99.90
23283;DHT22;11810;51.178;3.878;2023-05-20T07:39:28;23.80;99.90
23283;DHT22;11810;51.178;3.878;2023-05-20T07:41:54;24.00;99.90
23283;DHT22;11810;51.178;3.878;2023-05-20T07:44:20;23.70;99.90
23283;DHT22;11810;51.178;3.878;2023-05-20T07:46:48;24.00;99.90
23283;DHT22;11810;51.178;3.878;2023-05-20T07:49:14;24.40;99.90
23283;DHT22;11810;51.178;3.878;2023-05-20T07:51:40;24.50;99.90
23283;DHT22;11810;51.178;3.878;2023-05-20T07:54:06;25.10;99.90
23283;DHT22;11810;51.178;3.878;2023-05-20T07:56:32;25.00;99.90
23283;DHT22;11810;51.178;3.878;2023-05-20T07:58:59;25.00;99.90
23283;DHT22;11810;51.178;3.878;2023-05-20T08:01:25;25.10;99.90
23283;DHT22;11810;51.178;3.878;2023-05-20T08:03:52;25.40;99.90
23283;DHT22;11810;51.178;3.878;2023-05-20T08:06:18;25.80;99.90
23283;DHT22;11810;51.178;3.878;2023-05-20T08:08:51;25.60;99.90
23283;DHT22;11810;51.178;3.878;2023-05-20T08:11:20;25.80;99.90
23283;DHT22;11810;51.178;3.878;2023-05-20T08:13:47;25.90;99.90
23283;DHT22;11810;51.178;3.878;2023-05-20T08:16:13;26.20;99.90
23283;DHT22;11810;51.178;3.878;2023-05-20T08:18:39;25.90;99.90
23283;DHT22;11810;51.178;3.878;2023-05-20T08:21:06;26.00;99.90
23283;DHT22;11810;51.178;3.878;2023-05-20T08:23:33;26.40;99.90
23283;DHT22;11810;51.178;3.878;2023-05-20T08:26:00;26.40;99.90
23283;DHT22;11810;51.178;3.878;2023-05-20T08:28:29;26.80;99.90
23283;DHT22;11810;51.178;3.878;2023-05-20T08:30:56;27.10;99.90
23283;DHT22;11810;51.178;3.878;2023-05-20T08:33:24;27.30;99.90
23283;DHT22;11810;51.178;3.878;2023-05-20T08:35:51;26.80;99.90
23283;DHT22;11810;51.178;3.878;2023-05-20T08:38:17;27.00;99.90
23283;DHT22;11810;51.178;3.878;2023-05-20T08:40:43;27.10;99.90
23283;DHT22;11810;51.178;3.878;2023-05-20T08:43:09;27.00;99.90
23283;DHT22;11810;51.178;3.878;2023-05-20T08:45:37;27.30;99.90
23283;DHT22;11810;51.178;3.878;2023-05-20T08:48:03;27.60;99.90
23283;DHT22;11810;51.178;3.878;2023-05-20T08:50:30;27.90;99.90
23283;DHT22;11810;51.178;3.878;2023-05-20T08:52:56;27.10;99.90
23283;DHT22;11810;51.178;3.878;2023-05-20T08:58:02;27.40;99.90
23283;DHT22;11810;51.178;3.878;2023-05-20T09:00:28;27.50;99.90
23283;DHT22;11810;51.178;3.878;2023-05-20T09:02:54;28.10;99.90
23283;DHT22;11810;51.178;3.878;2023-05-20T09:05:21;28.40;99.90
23283;DHT22;11810;51.178;3.878;2023-05-20T09:07:47;28.60;99.90
23283;DHT22;11810;51.178;3.878;2023-05-20T09:10:14;28.50;99.90
23283;DHT22;11810;51.178;3.878;2023-05-20T09:12:39;28.10;99.90
23283;DHT22;11810;51.178;3.878;2023-05-20T09:15:06;28.10;99.90
23283;DHT22;11810;51.178;3.878;2023-05-20T09:17:37;27.90;99.90
23283;DHT22;11810;51.178;3.878;2023-05-20T09:20:09;27.50;99.90
23283;DHT22;11810;51.178;3.878;2023-05-20T09:22:37;27.70;99.90
23283;DHT22;11810;51.178;3.878;2023-05-20T09:25:04;27.60;99.90
23283;DHT22;11810;51.178;3.878;2023-05-20T09:27:31;27.80;99.90
23283;DHT22;11810;51.178;3.878;2023-05-20T09:29:57;27.90;99.90
23283;DHT22;11810;51.178;3.878;2023-05-20T09:32:23;28.00;99.90
23283;DHT22;11810;51.178;3.878;2023-05-20T09:34:51;28.30;99.90
23283;DHT22;11810;51.178;3.878;2023-05-20T09:37:18;28.70;99.90
23283;DHT22;11810;51.178;3.878;2023-05-20T09:39:55;28.40;99.90
23283;DHT22;11810;51.178;3.878;2023-05-20T09:45:14;28.00;99.90
23283;DHT22;11810;51.178;3.878;2023-05-20T09:47:40;28.10;99.90
23283;DHT22;11810;51.178;3.878;2023-05-20T09:50:08;27.30;99.90
23283;DHT22;11810;51.178;3.878;2023-05-20T09:52:36;26.40;99.90
23283;DHT22;11810;51.178;3.878;2023-05-20T09:55:04;26.50;99.90
23283;DHT22;11810;51.178;3.878;2023-05-20T09:57:33;26.60;99.90
23283;DHT22;11810;51.178;3.878;2023-05-20T10:00:04;26.40;99.90
23283;DHT22;11810;51.178;3.878;2023-05-20T10:02:34;27.00;99.90
23283;DHT22;11810;51.178;3.878;2023-05-20T10:05:11;27.50;99.90
23283;DHT22;11810;51.178;3.878;2023-05-20T10:13:46;27.30;99.90
23283;DHT22;11810;51.178;3.878;2023-05-20T10:16:22;27.70;99.90
23283;DHT22;11810;51.178;3.878;2023-05-20T10:21:40;26.90;99.90
23283;DHT22;11810;51.178;3.878;2023-05-20T10:24:08;26.00;99.90
23283;DHT22;11810;51.178;3.878;2023-05-20T10:26:38;26.50;99.90
23283;DHT22;11810;51.178;3.878;2023-05-20T10:29:14;26.80;99.90
23283;DHT22;11810;51.178;3.878;2023-05-20T10:31:48;26.70;99.90
23283;DHT22;11810;51.178;3.878;2023-05-20T10:34:18;26.00;99.90
23283;DHT22;11810;51.178;3.878;2023-05-20T10:39:30;27.00;99.90
23283;DHT22;11810;51.178;3.878;2023-05-20T10:42:05;26.80;99.90
23283;DHT22;11810;51.178;3.878;2023-05-20T10:44:45;26.30;99.90
23283;DHT22;11810;51.178;3.878;2023-05-20T10:47:11;26.40;99.90
23283;DHT22;11810;51.178;3.878;2023-05-20T10:49:44;26.60;99.90
23283;DHT22;11810;51.178;3.878;2023-05-20T10:52:13;26.40;99.90
23283;DHT22;11810;51.178;3.878;2023-05-20T10:54:54;25.40;99.90
23283;DHT22;11810;51.178;3.878;2023-05-20T10:57:21;25.50;99.90
23283;DHT22;11810;51.178;3.878;2023-05-20T10:59:47;25.50;99.90
23283;DHT22;11810;51.178;3.878;2023-05-20T11:02:18;25.50;99.90
23283;DHT22;11810;51.178;3.878;2023-05-20T11:04:45;26.00;99.90
23283;DHT22;11810;51.178;3.878;2023-05-20T11:07:12;26.50;99.90
23283;DHT22;11810;51.178;3.878;2023-05-20T11:09:38;26.80;99.90
23283;DHT22;11810;51.178;3.878;2023-05-20T11:12:04;27.20;99.90
23283;DHT22;11810;51.178;3.878;2023-05-20T11:14:30;27.20;99.90
23283;DHT22;11810;51.178;3.878;2023-05-20T11:16:59;28.00;99.90
23283;DHT22;11810;51.178;3.878;2023-05-20T11:19:26;28.40;99.50
23283;DHT22;11810;51.178;3.878;2023-05-20T11:21:52;27.70;98.40
23283;DHT22;11810;51.178;3.878;2023-05-20T11:24:24;27.60;99.40
23283;DHT22;11810;51.178;3.878;2023-05-20T11:26:56;27.10;97.00
23283;DHT22;11810;51.178;3.878;2023-05-20T11:29:22;26.60;98.50
23283;DHT22;11810;51.178;3.878;2023-05-20T11:31:51;26.30;99.30
23283;DHT22;11810;51.178;3.878;2023-05-20T11:34:23;26.60;99.40
23283;DHT22;11810;51.178;3.878;2023-05-20T11:36:56;27.00;98.80
23283;DHT22;11810;51.178;3.878;2023-05-20T11:39:23;26.80;99.50
23283;DHT22;11810;51.178;3.878;2023-05-20T11:41:49;27.20;98.20
23283;DHT22;11810;51.178;3.878;2023-05-20T11:44:15;27.90;97.60
23283;DHT22;11810;51.178;3.878;2023-05-20T11:46:46;28.30;97.20
23283;DHT22;11810;51.178;3.878;2023-05-20T11:49:13;28.50;96.50
23283;DHT22;11810;51.178;3.878;2023-05-20T11:51:39;28.60;95.70
23283;DHT22;11810;51.178;3.878;2023-05-20T11:54:07;28.70;95.50
23283;DHT22;11810;51.178;3.878;2023-05-20T11:56:35;29.00;94.80
23283;DHT22;11810;51.178;3.878;2023-05-20T11:59:05;29.00;95.40
23283;DHT22;11810;51.178;3.878;2023-05-20T12:01:33;28.90;94.90
23283;DHT22;11810;51.178;3.878;2023-05-20T12:04:03;28.80;95.00
23283;DHT22;11810;51.178;3.878;2023-05-20T12:06:30;29.00;93.20
23283;DHT22;11810;51.178;3.878;2023-05-20T12:08:57;29.20;92.60
23283;DHT22;11810;51.178;3.878;2023-05-20T12:11:24;28.80;93.30
23283;DHT22;11810;51.178;3.878;2023-05-20T12:13:50;28.30;93.20
23283;DHT22;11810;51.178;3.878;2023-05-20T12:16:16;28.00;94.30
23283;DHT22;11810;51.178;3.878;2023-05-20T12:18:42;28.20;95.70
23283;DHT22;11810;51.178;3.878;2023-05-20T12:21:08;28.70;95.70
23283;DHT22;11810;51.178;3.878;2023-05-20T12:23:34;28.60;95.30
23283;DHT22;11810;51.178;3.878;2023-05-20T12:26:00;29.00;95.50
23283;DHT22;11810;51.178;3.878;2023-05-20T12:28:26;29.30;93.20
23283;DHT22;11810;51.178;3.878;2023-05-20T12:30:51;29.20;92.60
23283;DHT22;11810;51.178;3.878;2023-05-20T12:33:17;29.50;92.90
23283;DHT22;11810;51.178;3.878;2023-05-20T12:35:45;29.90;93.30
23283;DHT22;11810;51.178;3.878;2023-05-20T12:38:11;29.40;92.10
23283;DHT22;11810;51.178;3.878;2023-05-20T12:40:37;28.80;93.10
23283;DHT22;11810;51.178;3.878;2023-05-20T12:43:04;28.40;92.30
23283;DHT22;11810;51.178;3.878;2023-05-20T12:45:30;28.50;93.00
23283;DHT22;11810;51.178;3.878;2023-05-20T12:47:56;28.20;93.60
23283;DHT22;11810;51.178;3.878;2023-05-20T12:50:23;28.20;92.50
23283;DHT22;11810;51.178;3.878;2023-05-20T12:52:50;28.30;94.30
23283;DHT22;11810;51.178;3.878;2023-05-20T12:55:16;28.20;93.80
23283;DHT22;11810;51.178;3.878;2023-05-20T12:57:43;28.50;93.50
23283;DHT22;11810;51.178;3.878;2023-05-20T13:00:10;28.10;93.40
23283;DHT22;11810;51.178;3.878;2023-05-20T13:02:38;28.30;93.20
23283;DHT22;11810;51.178;3.878;2023-05-20T13:05:05;28.20;93.60
23283;DHT22;11810;51.178;3.878;2023-05-20T13:07:31;27.60;94.90
23283;DHT22;11810;51.178;3.878;2023-05-20T13:09:58;27.10;94.90
23283;DHT22;11810;51.178;3.878;2023-05-20T13:12:24;27.30;94.40
23283;DHT22;11810;51.178;3.878;2023-05-20T13:14:50;27.30;94.80
23283;DHT22;11810;51.178;3.878;2023-05-20T13:17:17;27.40;96.00
23283;DHT22;11810;51.178;3.878;2023-05-20T13:19:43;27.70;95.10
23283;DHT22;11810;51.178;3.878;2023-05-20T13:22:10;27.80;94.80
23283;DHT22;11810;51.178;3.878;2023-05-20T13:24:36;28.00;96.20
23283;DHT22;11810;51.178;3.878;2023-05-20T13:27:03;28.30;94.30
23283;DHT22;11810;51.178;3.878;2023-05-20T13:29:29;28.50;94.30
23283;DHT22;11810;51.178;3.878;2023-05-20T13:31:56;28.20;94.70
23283;DHT22;11810;51.178;3.878;2023-05-20T13:34:22;28.10;94.80
23283;DHT22;11810;51.178;3.878;2023-05-20T13:36:48;28.20;94.80
23283;DHT22;11810;51.178;3.878;2023-05-20T13:39:14;27.80;94.50
23283;DHT22;11810;51.178;3.878;2023-05-20T13:41:41;26.80;95.30
23283;DHT22;11810;51.178;3.878;2023-05-20T13:44:07;26.60;96.20
23283;DHT22;11810;51.178;3.878;2023-05-20T13:46:33;27.00;96.80
23283;DHT22;11810;51.178;3.878;2023-05-20T13:48:59;27.40;97.60
23283;DHT22;11810;51.178;3.878;2023-05-20T13:51:25;27.50;95.20
23283;DHT22;11810;51.178;3.878;2023-05-20T13:53:51;27.10;94.80
23283;DHT22;11810;51.178;3.878;2023-05-20T13:56:17;26.30;96.70
23283;DHT22;11810;51.178;3.878;2023-05-20T13:58:44;26.10;97.20
23283;DHT22;11810;51.178;3.878;2023-05-20T14:01:10;26.30;97.00
23283;DHT22;11810;51.178;3.878;2023-05-20T14:03:37;26.00;97.80
23283;DHT22;11810;51.178;3.878;2023-05-20T14:06:05;25.50;98.40
23283;DHT22;11810;51.178;3.878;2023-05-20T14:08:31;25.00;98.30
23283;DHT22;11810;51.178;3.878;2023-05-20T14:10:57;24.80;99.90
23283;DHT22;11810;51.178;3.878;2023-05-20T14:13:23;25.30;99.10
23283;DHT22;11810;51.178;3.878;2023-05-20T14:15:50;25.70;99.80
23283;DHT22;11810;51.178;3.878;2023-05-20T14:18:17;25.90;98.10
23283;DHT22;11810;51.178;3.878;2023-05-20T14:20:44;26.30;98.60
23283;DHT22;11810;51.178;3.878;2023-05-20T14:23:10;26.20;99.00
23283;DHT22;11810;51.178;3.878;2023-05-20T14:25:37;26.60;98.90
23283;DHT22;11810;51.178;3.878;2023-05-20T14:28:03;27.10;98.90
23283;DHT22;11810;51.178;3.878;2023-05-20T14:30:29;27.60;98.00
23283;DHT22;11810;51.178;3.878;2023-05-20T14:32:55;27.40;98.00
23283;DHT22;11810;51.178;3.878;2023-05-20T14:35:21;27.10;97.90
23283;DHT22;11810;51.178;3.878;2023-05-20T14:37:47;26.70;98.00
23283;DHT22;11810;51.178;3.878;2023-05-20T14:40:13;26.20;98.70
23283;DHT22;11810;51.178;3.878;2023-05-20T14:42:39;25.90;99.50
23283;DHT22;11810;51.178;3.878;2023-05-20T14:45:05;25.40;99.90
23283;DHT22;11810;51.178;3.878;2023-05-20T14:47:32;25.20;99.90
23283;DHT22;11810;51.178;3.878;2023-05-20T14:49:58;25.10;99.90
23283;DHT22;11810;51.178;3.878;2023-05-20T14:52:25;24.70;99.90
23283;DHT22;11810;51.178;3.878;2023-05-20T14:54:51;24.30;99.90
23283;DHT22;11810;51.178;3.878;2023-05-20T14:57:17;24.10;99.90
23283;DHT22;11810;51.178;3.878;2023-05-20T14:59:43;23.90;99.90
23283;DHT22;11810;51.178;3.878;2023-05-20T15:02:10;23.70;99.90
23283;DHT22;11810;51.178;3.878;2023-05-20T15:04:37;23.60;99.90
23283;DHT22;11810;51.178;3.878;2023-05-20T15:07:04;23.60;99.90
23283;DHT22;11810;51.178;3.878;2023-05-20T15:09:29;23.50;99.90
23283;DHT22;11810;51.178;3.878;2023-05-20T15:11:56;23.30;99.90
23283;DHT22;11810;51.178;3.878;2023-05-20T15:14:22;23.40;99.90
23283;DHT22;11810;51.178;3.878;2023-05-20T15:16:48;23.60;99.90
23283;DHT22;11810;51.178;3.878;2023-05-20T15:19:13;23.90;99.90
23283;DHT22;11810;51.178;3.878;2023-05-20T15:21:39;24.30;99.90
23283;DHT22;11810;51.178;3.878;2023-05-20T15:24:06;24.80;99.90
23283;DHT22;11810;51.178;3.878;2023-05-20T15:26:32;24.80;99.90
23283;DHT22;11810;51.178;3.878;2023-05-20T15:28:58;24.80;99.90
23283;DHT22;11810;51.178;3.878;2023-05-20T15:31:24;24.40;99.90
23283;DHT22;11810;51.178;3.878;2023-05-20T15:33:50;24.70;99.90
23283;DHT22;11810;51.178;3.878;2023-05-20T15:36:16;25.00;99.90
23283;DHT22;11810;51.178;3.878;2023-05-20T15:38:42;25.10;99.90
23283;DHT22;11810;51.178;3.878;2023-05-20T15:41:08;24.90;99.90
23283;DHT22;11810;51.178;3.878;2023-05-20T15:43:37;24.40;99.90